Wrington, United Kingdom
Current Conditions -  °F | °C
As of 10:20 AM on Saturday 20 Dec 2014 (Local Time) from EGGD Reporting Station
Broken Clouds Broken Clouds  
Wind Chill:   Ceiling: 4000
Heat Index:   Visibility: 6mi
Dew Point:   Wind: 20mph
Humidity: 81%   Direction: 270°W
Pressure: 30.33"   Gusts: NA
Location:  51.36°N, 2.76°W
Report Text: EGGD 201020Z 27017KT 9999 FEW012 BKN040 07/04 Q1027
Loading
Personal Weather Stations






























Interactive Weather Map New forecast layout! Learn more

10-Day Weather Forecast

Advertisements
Track Severe Weather on mobile